createdAt,value
2022-10-21T00:02:27.809Z,3.58
2022-10-21T00:05:15.244Z,2.90
2022-10-21T00:08:02.094Z,2.80
2022-10-21T00:10:53.889Z,3.08
2022-10-21T00:13:41.466Z,3.17
2022-10-21T00:16:28.954Z,3.30
2022-10-21T00:19:15.898Z,3.42
2022-10-21T00:22:03.222Z,3.53
2022-10-21T00:24:49.901Z,3.22
2022-10-21T00:27:39.268Z,3.20
2022-10-21T00:30:26.386Z,3.03
2022-10-21T00:33:14.104Z,2.90
2022-10-21T00:36:02.951Z,3.47
2022-10-21T00:38:50.056Z,3.17
2022-10-21T00:41:37.089Z,3.50
2022-10-21T00:44:27.878Z,2.97
2022-10-21T00:47:18.906Z,2.90
2022-10-21T00:50:06.601Z,2.95
2022-10-21T00:52:54.734Z,3.20
2022-10-21T00:55:46.761Z,3.35
2022-10-21T00:58:35.725Z,3.37
2022-10-21T01:01:24.601Z,3.15
2022-10-21T01:04:11.257Z,2.90
2022-10-21T01:06:58.778Z,2.78
2022-10-21T01:09:45.585Z,3.37
2022-10-21T01:12:39.424Z,2.70
2022-10-21T01:15:32.558Z,3.15
2022-10-21T01:18:31.879Z,3.55
2022-10-21T01:21:31.286Z,2.97
2022-10-21T01:24:48.893Z,3.17
2022-10-21T01:27:48.880Z,3.35
2022-10-21T01:30:43.690Z,3.10
2022-10-21T01:33:53.104Z,3.15
2022-10-21T01:36:45.124Z,3.05
2022-10-21T01:39:40.002Z,3.08
2022-10-21T01:42:33.785Z,2.75
2022-10-21T01:45:26.723Z,3.60
2022-10-21T01:48:19.813Z,2.87
2022-10-21T01:51:08.640Z,3.10
2022-10-21T01:54:01.355Z,3.20
2022-10-21T01:56:49.903Z,3.30
2022-10-21T01:59:39.991Z,3.47
2022-10-21T02:02:31.510Z,3.17
2022-10-21T02:05:22.889Z,3.67
2022-10-21T02:08:10.307Z,3.40
2022-10-21T02:11:04.275Z,2.97
2022-10-21T02:13:57.641Z,3.83
2022-10-21T02:16:46.480Z,3.55
2022-10-21T02:19:34.020Z,3.67
2022-10-21T02:22:23.594Z,3.67
2022-10-21T02:25:14.386Z,3.28
2022-10-21T02:28:01.788Z,3.33
2022-10-21T02:30:57.499Z,3.40
2022-10-21T02:33:52.795Z,2.92
2022-10-21T02:36:50.861Z,3.08
2022-10-21T02:39:43.287Z,3.42
2022-10-21T02:42:34.975Z,3.50
2022-10-21T02:45:23.579Z,3.60
2022-10-21T02:48:10.554Z,3.35
2022-10-21T02:50:57.902Z,3.40
2022-10-21T02:53:44.781Z,3.72
2022-10-21T02:56:32.921Z,3.42
2022-10-21T02:59:19.793Z,3.62
2022-10-21T03:02:06.615Z,3.45
2022-10-21T03:04:53.536Z,3.28
2022-10-21T03:07:40.593Z,3.22
2022-10-21T03:10:27.549Z,2.85
2022-10-21T03:13:15.787Z,4.18
2022-10-21T03:16:02.601Z,3.65
2022-10-21T03:18:50.022Z,3.78
2022-10-21T03:21:36.737Z,3.65
2022-10-21T03:24:28.919Z,3.33
2022-10-21T03:27:16.109Z,2.92
2022-10-21T03:30:05.831Z,3.33
2022-10-21T03:32:52.922Z,3.42
2022-10-21T03:35:40.161Z,3.00
2022-10-21T03:38:27.055Z,3.28
2022-10-21T03:41:14.369Z,2.87
2022-10-21T03:44:01.205Z,3.40
2022-10-21T03:46:50.450Z,3.30
2022-10-21T03:49:37.409Z,3.80
2022-10-21T03:52:24.584Z,3.80
2022-10-21T03:55:11.688Z,2.95
2022-10-21T03:57:59.180Z,3.83
2022-10-21T04:00:45.871Z,3.25
2022-10-21T04:03:34.558Z,3.28
2022-10-21T04:06:21.780Z,3.83
2022-10-21T04:09:09.159Z,3.08
2022-10-21T04:11:55.952Z,2.90
2022-10-21T04:14:43.394Z,3.72
2022-10-21T04:17:30.485Z,3.40
2022-10-21T04:20:19.368Z,3.40
2022-10-21T04:23:05.838Z,3.45
2022-10-21T04:25:52.866Z,3.20
2022-10-21T04:28:40.052Z,3.30
2022-10-21T04:31:31.279Z,2.83
2022-10-21T04:34:19.100Z,3.50
2022-10-21T04:37:07.658Z,3.75
2022-10-21T04:39:57.203Z,3.50
2022-10-21T04:42:48.531Z,4.05
2022-10-21T04:45:35.331Z,3.42
2022-10-21T04:48:23.166Z,3.42
2022-10-21T04:51:10.375Z,3.67
2022-10-21T04:53:59.021Z,3.03
2022-10-21T04:56:45.699Z,3.62
2022-10-21T04:59:32.499Z,3.47
2022-10-21T05:02:21.719Z,3.10
2022-10-21T05:05:11.754Z,3.42
2022-10-21T05:07:58.874Z,2.75
2022-10-21T05:10:47.531Z,3.50
2022-10-21T05:13:34.642Z,3.08
2022-10-21T05:16:22.036Z,3.42
2022-10-21T05:19:08.941Z,3.55
2022-10-21T05:21:56.267Z,2.47
2022-10-21T05:24:43.459Z,3.05
2022-10-21T05:27:32.038Z,2.78
2022-10-21T05:30:18.910Z,3.70
2022-10-21T05:33:07.249Z,3.10
2022-10-21T05:35:58.959Z,3.83
2022-10-21T05:38:46.077Z,3.55
2022-10-21T05:41:34.313Z,3.42
2022-10-21T05:44:23.493Z,3.53
2022-10-21T05:47:10.686Z,3.87
2022-10-21T05:49:57.954Z,3.60
2022-10-21T05:52:44.624Z,3.12
2022-10-21T05:55:32.450Z,3.30
2022-10-21T05:58:19.262Z,3.30
2022-10-21T06:01:08.044Z,3.40
2022-10-21T06:03:55.014Z,3.20
2022-10-21T06:06:41.825Z,3.72
2022-10-21T06:09:29.254Z,3.75
2022-10-21T06:12:16.036Z,3.00
2022-10-21T06:15:03.430Z,3.97
2022-10-21T06:17:52.610Z,3.55
2022-10-21T06:20:40.124Z,3.12
2022-10-21T06:23:27.029Z,4.10
2022-10-21T06:26:15.463Z,3.85
2022-10-21T06:29:02.377Z,4.65
2022-10-21T06:31:49.785Z,3.40
2022-10-21T06:34:37.945Z,3.55
2022-10-21T06:37:25.456Z,4.43
2022-10-21T06:40:13.191Z,3.67
2022-10-21T06:43:00.374Z,3.65
2022-10-21T06:45:47.035Z,3.50
2022-10-21T06:48:35.048Z,3.87
2022-10-21T06:51:24.385Z,3.55
2022-10-21T06:54:11.595Z,3.50
2022-10-21T06:56:58.490Z,3.72
2022-10-21T06:59:45.417Z,3.83
2022-10-21T07:02:32.220Z,3.22
2022-10-21T07:05:20.010Z,3.75
2022-10-21T07:08:10.606Z,3.75
2022-10-21T07:10:59.985Z,3.92
2022-10-21T07:13:47.074Z,3.37
2022-10-21T07:16:35.855Z,3.62
2022-10-21T07:19:22.785Z,3.28
2022-10-21T07:22:10.249Z,3.35
2022-10-21T07:24:58.166Z,4.22
2022-10-21T07:27:48.149Z,4.00
2022-10-21T07:30:40.791Z,3.55
2022-10-21T07:33:28.287Z,4.03
2022-10-21T07:36:18.873Z,3.55
2022-10-21T07:39:10.261Z,4.37
2022-10-21T07:41:59.163Z,3.33
2022-10-21T07:44:46.377Z,3.70
2022-10-21T07:47:32.899Z,3.70
2022-10-21T07:50:20.604Z,3.22
2022-10-21T07:53:12.489Z,3.33
2022-10-21T07:56:05.499Z,3.80
2022-10-21T07:58:54.059Z,3.95
2022-10-21T08:01:44.340Z,3.75
2022-10-21T08:04:33.370Z,4.37
2022-10-21T08:07:19.842Z,4.50
2022-10-21T08:10:07.589Z,4.18
2022-10-21T08:12:54.128Z,4.00
2022-10-21T08:15:44.171Z,4.10
2022-10-21T08:18:31.077Z,4.07
2022-10-21T08:21:18.807Z,4.75
2022-10-21T08:24:06.115Z,3.75
2022-10-21T08:26:53.019Z,3.92
2022-10-21T08:29:40.275Z,3.55
2022-10-21T08:32:29.301Z,3.92
2022-10-21T08:35:16.406Z,4.28
2022-10-21T08:38:03.729Z,4.40
2022-10-21T08:40:53.505Z,4.05
2022-10-21T08:43:44.662Z,3.90
2022-10-21T08:46:36.684Z,4.00
2022-10-21T08:49:30.896Z,4.12
2022-10-21T08:52:21.887Z,4.50
2022-10-21T08:55:16.066Z,4.65
2022-10-21T08:58:05.489Z,4.22
2022-10-21T09:00:57.453Z,4.03
2022-10-21T09:03:54.267Z,4.28
2022-10-21T09:06:52.954Z,4.40
2022-10-21T09:09:45.060Z,4.15
2022-10-21T09:12:39.692Z,4.60
2022-10-21T09:15:37.839Z,4.15
2022-10-21T09:18:38.309Z,4.32
2022-10-21T09:21:39.750Z,3.95
2022-10-21T09:24:35.282Z,4.30
2022-10-21T09:27:31.954Z,3.95
2022-10-21T09:30:30.109Z,3.80
2022-10-21T09:33:20.782Z,4.22
2022-10-21T09:36:12.379Z,4.78
2022-10-21T09:39:03.391Z,4.85
2022-10-21T09:41:59.318Z,4.62
2022-10-21T09:44:48.497Z,4.60
2022-10-21T09:47:35.271Z,4.50
2022-10-21T09:50:22.155Z,4.55
2022-10-21T09:53:16.296Z,4.78
2022-10-21T09:56:07.537Z,5.00
2022-10-21T09:59:07.584Z,4.30
2022-10-21T10:01:56.584Z,4.57
2022-10-21T10:04:43.509Z,4.47
2022-10-21T10:07:35.323Z,4.53
2022-10-21T10:10:31.924Z,4.28
2022-10-21T10:13:20.462Z,5.05
2022-10-21T10:16:26.210Z,4.50
2022-10-21T10:19:17.866Z,4.85
2022-10-21T10:22:10.814Z,5.22
2022-10-21T10:25:08.816Z,4.95
2022-10-21T10:27:59.366Z,5.07
2022-10-21T10:30:49.422Z,4.68
2022-10-21T10:33:38.034Z,4.45
2022-10-21T10:36:29.848Z,4.70
2022-10-21T10:39:22.841Z,4.55
2022-10-21T10:42:10.143Z,4.82
2022-10-21T10:45:00.444Z,5.28
2022-10-21T10:47:50.670Z,4.18
2022-10-21T10:50:47.970Z,4.82
2022-10-21T10:53:36.915Z,4.68
2022-10-21T10:56:30.404Z,4.40
2022-10-21T10:59:26.102Z,4.35
2022-10-21T11:02:24.502Z,5.22
2022-10-21T11:05:24.570Z,4.87
2022-10-21T11:08:16.465Z,4.20
2022-10-21T11:11:07.326Z,4.90
2022-10-21T11:13:54.987Z,4.40
2022-10-21T11:17:00.610Z,4.47
2022-10-21T11:19:56.492Z,4.53
2022-10-21T11:22:51.591Z,4.50
2022-10-21T11:25:44.533Z,4.80
2022-10-21T11:28:35.095Z,4.75
2022-10-21T11:31:37.364Z,4.43
2022-10-21T11:34:41.478Z,4.40
2022-10-21T11:37:44.356Z,3.97
2022-10-21T11:40:39.002Z,3.72
2022-10-21T11:43:40.308Z,4.12
2022-10-21T11:46:38.676Z,3.97
2022-10-21T11:49:42.774Z,4.47
2022-10-21T11:52:42.542Z,4.00
2022-10-21T11:55:38.803Z,3.95
2022-10-21T11:58:39.371Z,4.00
2022-10-21T12:01:42.031Z,3.87
2022-10-21T12:04:42.061Z,3.65
2022-10-21T12:07:45.927Z,4.47
2022-10-21T12:10:37.233Z,3.97
2022-10-21T12:13:29.104Z,4.60
2022-10-21T12:16:20.772Z,4.22
2022-10-21T12:19:12.459Z,3.85
2022-10-21T12:21:59.855Z,4.20
2022-10-21T12:24:54.093Z,4.10
2022-10-21T12:27:46.612Z,4.47
2022-10-21T12:30:38.993Z,3.95
2022-10-21T12:33:36.906Z,3.65
2022-10-21T12:36:40.618Z,4.22
2022-10-21T12:39:50.370Z,4.68
2022-10-21T12:42:37.378Z,3.75
2022-10-21T12:45:28.024Z,3.72
2022-10-21T12:48:33.138Z,3.85
2022-10-21T12:51:23.526Z,4.18
2022-10-21T12:54:17.799Z,4.07
2022-10-21T12:57:08.064Z,4.10
2022-10-21T13:00:16.710Z,4.68
2022-10-21T13:03:06.464Z,3.90
2022-10-21T13:06:04.646Z,4.87
2022-10-21T13:08:56.327Z,4.68
2022-10-21T13:11:43.138Z,4.15
2022-10-21T13:14:39.770Z,4.55
2022-10-21T13:17:50.518Z,4.35
2022-10-21T13:20:49.143Z,4.40
2022-10-21T13:23:44.304Z,4.75
2022-10-21T13:26:31.552Z,4.18
2022-10-21T13:29:41.534Z,4.47
2022-10-21T13:32:31.266Z,4.25
2022-10-21T13:35:32.845Z,4.60
2022-10-21T13:38:23.229Z,4.12
2022-10-21T13:41:23.651Z,4.47
2022-10-21T13:44:27.531Z,4.00
2022-10-21T13:47:30.238Z,4.57
2022-10-21T13:50:21.170Z,4.28
2022-10-21T13:53:23.417Z,3.83
2022-10-21T13:56:22.136Z,4.45
2022-10-21T13:59:22.573Z,4.82
2022-10-21T14:02:24.874Z,4.00
2022-10-21T14:05:28.394Z,4.32
2022-10-21T14:08:26.582Z,4.47
2022-10-21T14:11:18.678Z,3.75
2022-10-21T14:14:11.978Z,4.07
2022-10-21T14:17:01.287Z,4.55
2022-10-21T14:19:52.322Z,4.68
2022-10-21T14:22:40.174Z,4.87
2022-10-21T14:25:27.861Z,4.43
2022-10-21T14:28:15.057Z,4.45
2022-10-21T14:33:55.389Z,4.25
2022-10-21T14:37:09.245Z,4.95
2022-10-21T14:40:11.005Z,4.85
2022-10-21T14:42:59.642Z,4.50
2022-10-21T14:45:49.213Z,4.45
2022-10-21T14:48:39.679Z,4.50
2022-10-21T14:51:27.835Z,5.32
2022-10-21T14:54:27.110Z,4.90
2022-10-21T14:57:35.211Z,4.47
2022-10-21T15:00:29.044Z,4.90
2022-10-21T15:03:38.702Z,4.90
2022-10-21T15:06:28.734Z,5.15
2022-10-21T15:09:23.166Z,5.20
2022-10-21T15:12:19.803Z,4.78
2022-10-21T15:15:43.415Z,4.65
2022-10-21T15:18:32.807Z,4.72
2022-10-21T15:21:37.497Z,4.70
2022-10-21T15:24:29.301Z,4.57
2022-10-21T15:27:19.301Z,4.20
2022-10-21T15:30:15.069Z,5.07
2022-10-21T15:33:02.103Z,4.37
2022-10-21T15:36:00.984Z,4.07
2022-10-21T15:38:49.628Z,4.95
2022-10-21T15:41:36.263Z,5.30
2022-10-21T15:44:27.455Z,4.78
2022-10-21T15:47:14.544Z,4.82
2022-10-21T15:50:01.498Z,5.35
2022-10-21T15:52:48.528Z,5.00
2022-10-21T15:55:38.307Z,5.12
2022-10-21T15:58:25.270Z,4.65
2022-10-21T16:01:13.816Z,5.18
2022-10-21T16:04:02.734Z,4.45
2022-10-21T16:06:51.492Z,4.75
2022-10-21T16:09:38.734Z,5.55
2022-10-21T16:12:27.345Z,4.55
2022-10-21T16:15:15.392Z,4.15
2022-10-21T16:18:02.460Z,4.20
2022-10-21T16:20:49.201Z,4.78
2022-10-21T16:23:35.916Z,4.70
2022-10-21T16:26:25.866Z,4.50
2022-10-21T16:32:11.915Z,4.05
2022-10-21T16:34:58.762Z,4.03
2022-10-21T16:37:46.214Z,3.37
2022-10-21T16:40:35.881Z,3.53
2022-10-21T16:43:24.081Z,3.42
2022-10-21T16:46:24.163Z,3.08
2022-10-21T16:49:14.710Z,2.75
2022-10-21T16:52:02.303Z,3.65
2022-10-21T16:54:50.335Z,3.15
2022-10-21T16:57:37.574Z,3.45
2022-10-21T17:00:24.775Z,3.37
2022-10-21T17:03:13.214Z,3.53
2022-10-21T17:06:00.725Z,3.65
2022-10-21T17:08:47.878Z,3.50
2022-10-21T17:11:37.315Z,3.10
2022-10-21T17:14:24.340Z,2.58
2022-10-21T17:17:11.829Z,2.30
2022-10-21T17:20:00.103Z,3.00
2022-10-21T17:22:47.599Z,2.33
2022-10-21T17:25:34.596Z,3.42
2022-10-21T17:28:22.221Z,3.10
2022-10-21T17:31:13.117Z,1.83
2022-10-21T17:34:06.286Z,2.33
2022-10-21T17:36:55.221Z,2.40
2022-10-21T17:39:46.832Z,2.15
2022-10-21T17:42:33.851Z,2.40
2022-10-21T17:45:22.699Z,2.22
2022-10-21T17:48:10.014Z,1.80
2022-10-21T17:50:59.689Z,3.00
2022-10-21T17:53:49.459Z,3.37
2022-10-21T17:56:36.458Z,3.95
2022-10-21T17:59:23.488Z,2.70
2022-10-21T18:02:11.026Z,2.42
2022-10-21T18:04:58.242Z,2.83
2022-10-21T18:07:45.113Z,2.70
2022-10-21T18:10:33.865Z,1.50
2022-10-21T18:13:20.656Z,1.62
2022-10-21T18:16:10.235Z,1.67
2022-10-21T18:19:01.732Z,1.73
2022-10-21T18:21:50.688Z,1.60
2022-10-21T18:24:37.919Z,2.00
2022-10-21T18:27:26.372Z,1.67
2022-10-21T18:30:13.664Z,1.77
2022-10-21T18:33:00.881Z,2.80
2022-10-21T18:35:47.703Z,3.83
2022-10-21T18:38:35.013Z,1.77
2022-10-21T18:41:22.038Z,2.50
2022-10-21T18:44:13.738Z,2.42
2022-10-21T18:47:00.233Z,2.47
2022-10-21T18:49:47.549Z,3.10
2022-10-21T18:52:34.261Z,3.10
2022-10-21T18:55:21.871Z,2.47
2022-10-21T18:58:08.718Z,2.72
2022-10-21T19:00:57.372Z,2.40
2022-10-21T19:03:44.628Z,2.30
2022-10-21T19:06:35.944Z,1.70
2022-10-21T19:09:25.716Z,1.80
2022-10-21T19:12:16.372Z,1.52
2022-10-21T19:15:06.397Z,1.90
2022-10-21T19:17:55.024Z,1.35
2022-10-21T19:20:41.732Z,1.48
2022-10-21T19:23:31.792Z,1.60
2022-10-21T19:26:22.459Z,1.40
2022-10-21T19:29:13.313Z,1.95
2022-10-21T19:32:00.305Z,1.73
2022-10-21T19:34:48.743Z,1.65
2022-10-21T19:37:35.663Z,1.70
2022-10-21T19:40:23.681Z,1.60
2022-10-21T19:43:10.705Z,1.80
2022-10-21T19:46:02.505Z,1.67
2022-10-21T19:48:49.435Z,1.70
2022-10-21T19:51:38.095Z,1.40
2022-10-21T19:54:24.766Z,1.90
2022-10-21T19:57:11.556Z,1.98
2022-10-21T19:59:58.369Z,1.67
2022-10-21T20:02:45.123Z,1.40
2022-10-21T20:05:34.435Z,1.23
2022-10-21T20:08:22.615Z,1.55
2022-10-21T20:11:13.049Z,1.30
2022-10-21T20:14:00.711Z,1.60
2022-10-21T20:16:49.838Z,1.92
2022-10-21T20:19:36.318Z,1.42
2022-10-21T20:22:23.552Z,1.33
2022-10-21T20:25:12.396Z,1.37
2022-10-21T20:27:59.819Z,1.30
2022-10-21T20:30:46.519Z,1.55
2022-10-21T20:33:36.277Z,1.40
2022-10-21T20:36:24.747Z,1.30
2022-10-21T20:39:13.397Z,1.60
2022-10-21T20:42:01.619Z,1.00
2022-10-21T20:44:48.839Z,1.48
2022-10-21T20:47:35.727Z,1.02
2022-10-21T20:50:23.145Z,1.40
2022-10-21T20:53:09.759Z,1.42
2022-10-21T20:55:57.284Z,1.25
2022-10-21T20:58:45.829Z,1.33
2022-10-21T21:01:35.252Z,1.23
2022-10-21T21:04:23.634Z,1.00
2022-10-21T21:07:12.809Z,1.10
2022-10-21T21:10:02.906Z,1.40
2022-10-21T21:12:50.284Z,1.40
2022-10-21T21:15:38.322Z,1.55
2022-10-21T21:18:25.666Z,0.85
2022-10-21T21:21:14.479Z,1.00
2022-10-21T21:24:03.027Z,1.55
2022-10-21T21:26:49.955Z,1.23
2022-10-21T21:29:36.934Z,1.12
2022-10-21T21:32:25.275Z,1.60
2022-10-21T21:35:12.700Z,1.87
2022-10-21T21:37:59.591Z,1.35
2022-10-21T21:40:47.026Z,1.48
2022-10-21T21:43:34.558Z,2.28
2022-10-21T21:46:23.837Z,1.70
2022-10-21T21:49:11.818Z,2.28
2022-10-21T21:51:59.148Z,1.50
2022-10-21T21:54:46.054Z,1.60
2022-10-21T21:57:34.421Z,1.77
2022-10-21T22:00:21.148Z,1.90
2022-10-21T22:03:08.191Z,1.55
2022-10-21T22:05:56.232Z,1.67
2022-10-21T22:08:43.480Z,1.60
2022-10-21T22:11:33.227Z,1.92
2022-10-21T22:14:20.439Z,2.12
2022-10-21T22:17:07.447Z,3.00
2022-10-21T22:19:54.760Z,3.67
2022-10-21T22:22:42.894Z,5.12
2022-10-21T22:25:30.314Z,5.75
2022-10-21T22:28:17.243Z,6.55
2022-10-21T22:31:06.722Z,7.60
2022-10-21T22:33:53.695Z,6.95
2022-10-21T22:36:41.015Z,7.93
2022-10-21T22:39:29.250Z,6.57
2022-10-21T22:42:16.576Z,6.47
2022-10-21T22:45:03.476Z,4.93
2022-10-21T22:47:50.876Z,5.53
2022-10-21T22:50:37.679Z,5.82
2022-10-21T22:53:24.793Z,6.03
2022-10-21T22:56:13.243Z,5.18
2022-10-21T22:59:00.669Z,4.57
2022-10-21T23:01:47.557Z,4.55
2022-10-21T23:04:34.574Z,4.78
2022-10-21T23:07:21.677Z,5.47
2022-10-21T23:10:09.862Z,5.60
2022-10-21T23:12:58.152Z,6.25
2022-10-21T23:15:46.040Z,6.25
2022-10-21T23:18:33.090Z,6.85
2022-10-21T23:21:20.098Z,6.32
2022-10-21T23:24:07.835Z,7.43
2022-10-21T23:26:59.093Z,7.15
2022-10-21T23:29:49.637Z,7.57
2022-10-21T23:32:37.184Z,8.00
2022-10-21T23:35:24.761Z,9.10
2022-10-21T23:38:12.074Z,9.98
2022-10-21T23:40:58.910Z,9.73
2022-10-21T23:43:46.090Z,8.73
2022-10-21T23:46:34.663Z,8.10
2022-10-21T23:49:22.073Z,8.13
2022-10-21T23:52:09.163Z,7.15
2022-10-21T23:54:55.972Z,6.03
2022-10-21T23:57:43.008Z,7.32
